createdAt,value
2018-02-04T00:04:01.434Z,0.4
2018-02-04T00:19:01.491Z,0.4
2018-02-04T00:34:01.149Z,0.5
2018-02-04T00:49:02.506Z,0.5
2018-02-04T00:54:01.345Z,0.6
2018-02-04T01:09:02.537Z,0.6
2018-02-04T01:24:01.436Z,0.7
2018-02-04T01:39:02.446Z,0.7
2018-02-04T01:54:02.450Z,0.7
2018-02-04T02:00:01.395Z,0.7
2018-02-04T02:10:01.427Z,0.6
2018-02-04T02:15:01.348Z,0.6
2018-02-04T02:30:01.470Z,0.6
2018-02-04T02:45:01.409Z,0.6
2018-02-04T03:00:01.465Z,0.5
2018-02-04T03:15:01.498Z,0.4
2018-02-04T03:25:01.125Z,0.3
2018-02-04T03:30:01.575Z,0.3
2018-02-04T03:35:01.357Z,0.2
2018-02-04T03:45:01.558Z,0.2
2018-02-04T03:50:01.402Z,0.1
2018-02-04T04:00:01.542Z,0.1
2018-02-04T04:15:01.730Z,0.1
2018-02-04T04:30:01.485Z,0.1
2018-02-04T04:45:01.668Z,0.2
2018-02-04T05:00:01.531Z,0.2
2018-02-04T05:15:01.407Z,0.2
2018-02-04T05:20:01.476Z,0.1
2018-02-04T05:30:01.429Z,0.1
2018-02-04T05:45:01.232Z,0.1
2018-02-04T05:50:01.141Z,0.2
2018-02-04T06:00:01.708Z,0.2
2018-02-04T06:06:01.521Z,0.3
2018-02-04T06:16:01.256Z,0.4
2018-02-04T06:21:01.309Z,0.5
2018-02-04T06:26:06.262Z,0.6
2018-02-04T06:31:06.270Z,0.7
2018-02-04T06:36:01.246Z,0.8
2018-02-04T06:41:01.196Z,0.9
2018-02-04T06:46:01.262Z,1.0
2018-02-04T06:51:01.255Z,1.1
2018-02-04T07:01:01.251Z,1.2
2018-02-04T07:06:01.240Z,1.3
2018-02-04T07:11:01.256Z,1.4
2018-02-04T07:21:01.291Z,1.5
2018-02-04T07:36:01.244Z,1.6
2018-02-04T07:51:01.281Z,1.7
2018-02-04T08:06:01.284Z,1.7
2018-02-04T08:16:01.270Z,1.8
2018-02-04T08:31:01.249Z,1.8
2018-02-04T08:41:01.217Z,1.7
2018-02-04T08:56:01.292Z,1.7
2018-02-04T09:06:01.294Z,1.8
2018-02-04T09:21:01.280Z,1.8
2018-02-04T09:31:01.286Z,1.9
2018-02-04T09:46:01.301Z,2.0
2018-02-04T09:52:01.544Z,2.1
2018-02-04T10:02:01.094Z,2.2
2018-02-04T10:12:01.385Z,2.3
2018-02-04T10:22:01.486Z,2.4
2018-02-04T10:37:01.353Z,2.5
2018-02-04T10:47:01.120Z,2.6
2018-02-04T10:57:01.421Z,2.7
2018-02-04T11:12:01.441Z,2.8
2018-02-04T11:22:01.410Z,2.9
2018-02-04T11:37:01.404Z,2.9
2018-02-04T11:47:01.101Z,3.0
2018-02-04T12:02:01.163Z,2.9
2018-02-04T12:17:01.259Z,2.9
2018-02-04T12:27:01.238Z,2.8
2018-02-04T12:42:01.228Z,2.7
2018-02-04T12:57:01.216Z,2.7
2018-02-04T18:06:01.113Z,1.9
2018-02-04T18:26:00.932Z,1.9
2018-02-04T18:41:00.855Z,1.9
2018-02-04T18:51:00.912Z,1.8
2018-02-04T19:06:00.845Z,1.8
2018-02-04T19:21:00.936Z,1.8
2018-02-04T19:36:00.801Z,1.8
2018-02-04T19:51:00.872Z,1.8
2018-02-04T20:06:00.830Z,1.8
2018-02-04T20:21:00.953Z,1.8
2018-02-04T20:36:00.811Z,1.8
2018-02-04T20:51:01.001Z,1.8
2018-02-04T21:06:00.831Z,1.8
2018-02-04T21:21:00.964Z,1.8
2018-02-04T21:36:00.849Z,1.8
2018-02-04T21:51:00.904Z,1.7
2018-02-04T22:06:00.845Z,1.7
2018-02-04T22:21:01.877Z,1.7
2018-02-04T22:36:00.840Z,1.7
2018-02-04T22:51:00.901Z,1.7
2018-02-04T23:06:00.856Z,1.7
2018-02-04T23:11:00.977Z,1.6
2018-02-04T23:26:01.051Z,1.6
2018-02-04T23:41:00.988Z,1.6
2018-02-04T23:56:00.995Z,1.6
